createdAt,value
2022-12-03T00:01:58.862Z,10.73
2022-12-03T00:06:01.791Z,10.48
2022-12-03T00:10:05.853Z,12.00
2022-12-03T00:14:09.142Z,10.40
2022-12-03T00:18:12.021Z,11.05
2022-12-03T00:22:14.845Z,10.02
2022-12-03T00:26:17.522Z,10.82
2022-12-03T00:30:20.611Z,19.00
2022-12-03T00:34:23.556Z,19.85
2022-12-03T00:38:26.238Z,21.25
2022-12-03T00:42:29.044Z,18.65
2022-12-03T00:46:31.846Z,9.20
2022-12-03T00:50:34.723Z,7.93
2022-12-03T00:54:37.512Z,8.60
2022-12-03T00:58:40.247Z,20.27
2022-12-03T01:02:44.110Z,21.48
2022-12-03T01:06:47.178Z,16.98
2022-12-03T01:10:49.932Z,16.10
2022-12-03T01:14:53.141Z,19.60
2022-12-03T01:18:56.256Z,21.77
2022-12-03T01:22:58.974Z,21.25
2022-12-03T01:27:01.796Z,18.52
2022-12-03T01:31:23.035Z,18.27
2022-12-03T01:35:26.009Z,19.55
2022-12-03T01:39:28.720Z,16.75
2022-12-03T01:43:31.472Z,17.08
2022-12-03T01:47:36.343Z,17.15
2022-12-03T01:51:39.657Z,15.27
2022-12-03T01:55:48.275Z,12.68
2022-12-03T01:59:52.830Z,14.50
2022-12-03T02:03:55.570Z,14.90
2022-12-03T02:07:59.458Z,13.32
2022-12-03T02:12:02.359Z,14.02
2022-12-03T02:16:05.391Z,13.00
2022-12-03T02:20:10.288Z,10.02
2022-12-03T02:24:51.894Z,8.93
2022-12-03T02:28:54.849Z,9.05
2022-12-03T02:32:58.415Z,8.65
2022-12-03T02:37:02.148Z,10.55
2022-12-03T02:41:09.435Z,7.57
2022-12-03T02:45:22.666Z,7.90
2022-12-03T02:49:25.340Z,7.80
2022-12-03T02:53:31.141Z,7.80
2022-12-03T02:57:36.164Z,7.28
2022-12-03T03:01:39.223Z,9.43
2022-12-03T03:05:42.254Z,10.43
2022-12-03T03:09:45.066Z,11.43
2022-12-03T03:13:47.759Z,10.63
2022-12-03T03:17:50.674Z,9.10
2022-12-03T03:21:54.512Z,9.70
2022-12-03T03:26:09.503Z,9.70
2022-12-03T03:30:13.664Z,10.68
2022-12-03T03:34:17.501Z,12.88
2022-12-03T03:38:22.074Z,12.00
2022-12-03T03:42:25.335Z,12.93
2022-12-03T03:46:28.873Z,16.25
2022-12-03T03:50:32.474Z,14.75
2022-12-03T03:54:35.235Z,13.18
2022-12-03T03:58:38.709Z,12.63
2022-12-03T04:02:41.782Z,12.82
2022-12-03T04:06:44.578Z,11.80
2022-12-03T04:11:06.076Z,13.80
2022-12-03T04:15:09.578Z,11.45
2022-12-03T04:19:12.429Z,11.45
2022-12-03T04:23:15.182Z,10.70
2022-12-03T04:27:36.479Z,11.60
2022-12-03T04:31:57.914Z,11.65
2022-12-03T04:36:00.833Z,11.43
2022-12-03T04:40:24.425Z,10.18
2022-12-03T04:44:35.736Z,11.23
2022-12-03T04:48:38.418Z,10.43
2022-12-03T04:52:41.195Z,8.65
2022-12-03T04:56:44.010Z,2.20
2022-12-03T05:00:46.651Z,1.50
2022-12-03T05:04:49.419Z,1.20
2022-12-03T05:08:52.088Z,2.13
2022-12-03T05:12:55.089Z,2.85
2022-12-03T05:16:57.831Z,4.30
2022-12-03T05:21:01.532Z,5.20
2022-12-03T05:25:04.691Z,6.13
2022-12-03T05:29:07.535Z,6.32
2022-12-03T05:33:16.765Z,6.78
2022-12-03T05:37:19.559Z,6.45
2022-12-03T05:41:45.379Z,5.30
2022-12-03T05:45:48.350Z,6.07
2022-12-03T05:49:51.314Z,5.18
2022-12-03T05:53:54.087Z,5.57
2022-12-03T05:57:57.429Z,4.75
2022-12-03T06:02:00.263Z,4.80
2022-12-03T06:06:03.059Z,3.67
2022-12-03T06:10:07.619Z,3.78
2022-12-03T06:14:10.618Z,3.40
2022-12-03T06:18:13.414Z,2.70
2022-12-03T06:22:16.216Z,2.47
2022-12-03T06:26:18.936Z,2.17
2022-12-03T06:30:21.788Z,2.08
2022-12-03T06:34:24.498Z,2.60
2022-12-03T06:38:27.141Z,3.08
2022-12-03T06:42:29.877Z,2.25
2022-12-03T06:46:33.636Z,3.25
2022-12-03T06:50:36.543Z,2.40
2022-12-03T06:54:39.319Z,1.63
2022-12-03T06:58:42.123Z,2.20
2022-12-03T07:02:44.908Z,2.53
2022-12-03T07:06:49.265Z,2.30
2022-12-03T07:10:52.080Z,2.83
2022-12-03T07:14:55.199Z,2.65
2022-12-03T07:18:58.312Z,3.08
2022-12-03T07:23:01.154Z,2.20
2022-12-03T07:27:03.914Z,2.97
2022-12-03T07:31:06.821Z,2.25
2022-12-03T07:35:09.870Z,3.15
2022-12-03T07:39:13.183Z,4.75
2022-12-03T07:43:16.136Z,7.03
2022-12-03T07:47:18.980Z,5.88
2022-12-03T07:51:24.186Z,5.95
2022-12-03T07:55:28.957Z,5.20
2022-12-03T07:59:31.844Z,4.95
2022-12-03T08:03:34.758Z,4.35
2022-12-03T08:07:37.986Z,4.60
2022-12-03T08:11:57.705Z,4.93
2022-12-03T08:16:10.574Z,3.67
2022-12-03T08:20:22.010Z,4.18
2022-12-03T08:24:24.981Z,5.40
2022-12-03T08:28:28.389Z,9.80
2022-12-03T08:32:31.870Z,13.00
2022-12-03T08:36:36.589Z,6.28
2022-12-03T08:40:42.681Z,10.38
2022-12-03T08:44:45.880Z,7.00
2022-12-03T08:48:49.699Z,7.22
2022-12-03T08:52:54.976Z,8.05
2022-12-03T08:56:57.766Z,8.05
2022-12-03T09:01:23.693Z,8.43
2022-12-03T09:05:35.770Z,9.38
2022-12-03T09:09:38.711Z,5.40
2022-12-03T09:13:41.594Z,3.60
2022-12-03T09:17:44.589Z,3.42
2022-12-03T09:21:47.355Z,3.05
2022-12-03T09:25:50.315Z,5.47
2022-12-03T09:29:53.138Z,5.85
2022-12-03T09:33:56.411Z,19.17
2022-12-03T09:37:59.396Z,12.68
2022-12-03T09:42:02.935Z,9.73
2022-12-03T09:46:06.112Z,10.73
2022-12-03T09:50:19.124Z,10.73
2022-12-03T09:54:26.190Z,13.27
2022-12-03T09:58:34.466Z,12.23
2022-12-03T10:02:37.969Z,11.35
2022-12-03T10:06:45.839Z,14.52
2022-12-03T10:10:53.284Z,15.88
2022-12-03T10:14:56.823Z,21.23
2022-12-03T10:19:00.883Z,13.50
2022-12-03T10:23:03.820Z,12.30
2022-12-03T10:27:24.554Z,14.57
2022-12-03T10:31:35.808Z,14.88
2022-12-03T10:35:41.387Z,16.25
2022-12-03T10:40:11.407Z,16.15
2022-12-03T10:44:19.048Z,17.30
2022-12-03T10:48:27.376Z,25.83
2022-12-03T10:52:30.893Z,16.15
2022-12-03T10:56:33.986Z,8.32
2022-12-03T11:00:37.107Z,8.07
2022-12-03T11:04:41.465Z,5.22
2022-12-03T11:08:49.265Z,9.70
2022-12-03T11:13:33.568Z,7.05
2022-12-03T11:17:46.781Z,3.63
2022-12-03T11:22:05.637Z,2.60
2022-12-03T11:26:09.799Z,2.50
2022-12-03T11:31:01.123Z,2.47
2022-12-03T11:35:34.702Z,2.10
2022-12-03T11:39:51.044Z,2.40
2022-12-03T11:43:56.382Z,2.05
2022-12-03T11:48:17.759Z,2.00
2022-12-03T11:52:28.428Z,1.70
2022-12-03T11:56:31.659Z,1.70
2022-12-03T12:00:34.807Z,1.60
2022-12-03T12:04:38.090Z,2.22
2022-12-03T12:08:51.763Z,6.60
2022-12-03T12:12:57.338Z,10.57
2022-12-03T12:17:03.404Z,7.50
2022-12-03T12:21:44.269Z,8.32
2022-12-03T12:25:53.764Z,10.60
2022-12-03T12:30:00.141Z,8.77
2022-12-03T12:34:07.531Z,8.80
2022-12-03T12:38:11.793Z,7.65
2022-12-03T12:42:35.220Z,11.95
2022-12-03T12:46:47.615Z,8.30
2022-12-03T12:50:59.404Z,9.00
2022-12-03T12:55:05.152Z,10.32
2022-12-03T12:59:24.375Z,9.60
2022-12-03T13:03:33.134Z,10.25
2022-12-03T13:07:36.538Z,11.88
2022-12-03T13:11:42.331Z,11.90
2022-12-03T13:15:50.601Z,12.77
2022-12-03T13:20:05.166Z,13.20
2022-12-03T13:24:30.432Z,13.07
2022-12-03T13:28:36.132Z,13.55
2022-12-03T13:32:41.438Z,12.38
2022-12-03T13:36:53.608Z,11.70
2022-12-03T13:41:02.724Z,11.70
2022-12-03T13:45:17.457Z,14.68
2022-12-03T13:49:22.748Z,14.10
2022-12-03T13:53:38.647Z,6.90
2022-12-03T14:01:45.967Z,2.40
2022-12-03T14:05:49.205Z,2.08
2022-12-03T14:09:52.237Z,3.55
2022-12-03T14:13:55.300Z,3.60
2022-12-03T14:18:01.788Z,2.70
2022-12-03T14:22:09.283Z,2.70
2022-12-03T14:26:11.971Z,2.10
2022-12-03T14:30:15.067Z,2.75
2022-12-03T14:34:17.787Z,16.95
2022-12-03T14:38:20.551Z,13.93
2022-12-03T14:42:23.282Z,20.63
2022-12-03T14:46:26.051Z,16.80
2022-12-03T14:50:30.223Z,9.57
2022-12-03T14:54:33.609Z,5.25
2022-12-03T14:58:36.357Z,2.90
2022-12-03T15:02:39.273Z,2.13
2022-12-03T15:06:42.100Z,2.40
2022-12-03T15:10:44.861Z,21.05
2022-12-03T15:14:47.869Z,18.73
2022-12-03T15:18:50.880Z,12.10
2022-12-03T15:22:53.932Z,9.00
2022-12-03T15:26:58.183Z,9.35
2022-12-03T15:31:01.421Z,11.40
2022-12-03T15:35:04.441Z,23.70
2022-12-03T15:39:07.288Z,17.30
2022-12-03T15:43:10.326Z,31.58
2022-12-03T15:47:13.279Z,14.70
2022-12-03T15:51:16.403Z,3.83
2022-12-03T15:55:19.250Z,10.25
2022-12-03T15:59:22.005Z,37.45
2022-12-03T16:03:24.903Z,11.85
2022-12-03T16:07:29.773Z,26.70
2022-12-03T16:11:32.743Z,30.52
2022-12-03T16:15:35.733Z,31.75
2022-12-03T16:19:38.456Z,27.17
2022-12-03T16:23:41.708Z,20.73
2022-12-03T16:27:44.505Z,26.38
2022-12-03T16:31:47.225Z,21.00
2022-12-03T16:35:49.916Z,18.48
2022-12-03T16:39:53.087Z,19.40
2022-12-03T16:43:56.150Z,15.73
2022-12-03T16:47:59.720Z,10.43
2022-12-03T16:52:02.640Z,6.93
2022-12-03T16:56:05.449Z,5.05
2022-12-03T17:00:08.852Z,5.90
2022-12-03T17:04:11.578Z,7.50
2022-12-03T17:08:15.645Z,6.05
2022-12-03T17:12:21.559Z,5.78
2022-12-03T17:16:24.370Z,4.28
2022-12-03T17:20:27.160Z,4.95
2022-12-03T17:24:30.270Z,1.77
2022-12-03T17:28:33.023Z,1.58
2022-12-03T17:32:36.536Z,3.17
2022-12-03T17:36:39.410Z,1.48
2022-12-03T17:40:42.136Z,1.23
2022-12-03T17:44:44.917Z,0.98
2022-12-03T17:48:47.710Z,1.60
2022-12-03T17:52:50.498Z,1.20
2022-12-03T17:56:53.233Z,1.30
2022-12-03T18:01:00.505Z,1.33
2022-12-03T18:05:05.590Z,1.30
2022-12-03T18:09:08.426Z,1.52
2022-12-03T18:13:11.190Z,1.25
2022-12-03T18:17:14.442Z,1.20
2022-12-03T18:21:17.122Z,1.10
2022-12-03T18:25:20.102Z,1.40
2022-12-03T18:29:22.911Z,1.50
2022-12-03T18:33:26.058Z,1.20
2022-12-03T18:37:29.944Z,1.30
2022-12-03T18:41:33.840Z,1.30
2022-12-03T18:45:36.587Z,1.60
2022-12-03T18:49:39.952Z,1.33
2022-12-03T18:53:43.530Z,1.30
2022-12-03T18:57:46.363Z,1.48
2022-12-03T19:01:49.360Z,1.65
2022-12-03T19:05:52.995Z,1.38
2022-12-03T19:09:56.067Z,1.60
2022-12-03T19:13:59.196Z,1.52
2022-12-03T19:18:01.907Z,1.60
2022-12-03T19:22:04.860Z,1.60
2022-12-03T19:26:12.238Z,1.52
2022-12-03T19:30:15.518Z,1.40
2022-12-03T19:34:18.599Z,2.03
2022-12-03T19:38:26.035Z,1.48
2022-12-03T19:42:28.785Z,1.73
2022-12-03T19:46:31.627Z,1.73
2022-12-03T19:50:34.367Z,1.85
2022-12-03T19:54:37.123Z,1.70
2022-12-03T19:58:43.178Z,1.45
2022-12-03T20:02:48.973Z,1.50
2022-12-03T20:06:51.819Z,1.38
2022-12-03T20:10:54.952Z,1.40
2022-12-03T20:14:57.827Z,1.60
2022-12-03T20:19:03.486Z,1.55
2022-12-03T20:23:06.348Z,1.52
2022-12-03T20:27:09.480Z,1.30
2022-12-03T20:31:15.078Z,1.30
2022-12-03T20:35:18.051Z,1.48
2022-12-03T20:39:20.758Z,1.42
2022-12-03T20:43:23.723Z,1.50
2022-12-03T20:47:26.515Z,1.38
2022-12-03T20:51:30.689Z,1.70
2022-12-03T20:55:34.068Z,1.48
2022-12-03T20:59:36.871Z,2.20
2022-12-03T21:03:39.746Z,1.50
2022-12-03T21:07:42.847Z,1.50
2022-12-03T21:11:45.734Z,1.70
2022-12-03T21:15:48.481Z,1.80
2022-12-03T21:19:51.309Z,1.90
2022-12-03T21:23:54.505Z,1.30
2022-12-03T21:27:57.612Z,1.88
2022-12-03T21:32:00.456Z,2.10
2022-12-03T21:36:04.909Z,2.30
2022-12-03T21:40:08.178Z,1.65
2022-12-03T21:44:10.881Z,2.70
2022-12-03T21:48:14.567Z,2.17
2022-12-03T21:52:17.459Z,1.98
2022-12-03T21:56:20.425Z,2.30
2022-12-03T22:00:23.125Z,2.22
2022-12-03T22:04:25.925Z,2.50
2022-12-03T22:08:28.840Z,3.25
2022-12-03T22:12:31.795Z,3.25
2022-12-03T22:16:34.501Z,4.40
2022-12-03T22:20:37.274Z,2.83
2022-12-03T22:24:39.967Z,3.03
2022-12-03T22:28:44.395Z,3.15
2022-12-03T22:32:47.311Z,3.10
2022-12-03T22:36:50.171Z,3.13
2022-12-03T22:40:53.136Z,3.63
2022-12-03T22:44:55.792Z,3.75
2022-12-03T22:49:03.482Z,4.07
2022-12-03T22:53:09.717Z,3.45
2022-12-03T22:57:12.637Z,2.97
2022-12-03T23:01:30.170Z,3.20
2022-12-03T23:05:36.494Z,4.32
2022-12-03T23:09:39.286Z,3.33
2022-12-03T23:13:42.216Z,3.80
2022-12-03T23:17:45.144Z,3.83
2022-12-03T23:21:47.848Z,4.20
2022-12-03T23:26:06.105Z,3.90
2022-12-03T23:30:09.719Z,3.78
2022-12-03T23:34:12.475Z,4.38
2022-12-03T23:38:15.355Z,4.18
2022-12-03T23:42:18.068Z,3.30
2022-12-03T23:46:27.325Z,3.10
2022-12-03T23:50:30.575Z,3.53
2022-12-03T23:54:34.092Z,2.78
2022-12-03T23:58:36.773Z,3.13
